Aviation Digital Data Service (ADDS)

Output produced by METARs form (1552 UTC 15 December 2017)
found at http://aviationweather.gov/adds/metars/
 
KAUG 151120Z 1512/1612 27004KT P6SM FEW250 
     FM160400 00000KT P6SM BKN045